createdAt,value
2017-10-14T00:00:26.496Z,11.10
2017-10-14T00:02:56.071Z,11.00
2017-10-14T00:05:26.343Z,10.60
2017-10-14T00:07:56.151Z,10.60
2017-10-14T00:10:26.171Z,10.80
2017-10-14T00:12:56.087Z,10.70
2017-10-14T00:15:26.495Z,10.90
2017-10-14T00:17:56.476Z,11.00
2017-10-14T00:20:26.274Z,11.10
2017-10-14T00:22:56.463Z,11.20
2017-10-14T00:25:26.334Z,11.20
2017-10-14T00:27:57.617Z,11.20
2017-10-14T00:30:27.510Z,11.20
2017-10-14T00:32:57.425Z,11.20
2017-10-14T00:35:28.299Z,11.10
2017-10-14T00:37:58.107Z,10.80
2017-10-14T00:40:27.955Z,10.80
2017-10-14T00:42:57.892Z,10.80
2017-10-14T00:45:27.896Z,10.80
2017-10-14T00:47:58.099Z,10.90
2017-10-14T00:50:28.388Z,11.00
2017-10-14T00:52:58.207Z,11.00
2017-10-14T00:55:28.138Z,11.00
2017-10-14T00:57:58.551Z,11.10
2017-10-14T01:00:29.208Z,11.10
2017-10-14T01:02:59.559Z,11.00
2017-10-14T01:05:29.476Z,11.00
2017-10-14T01:07:59.739Z,11.10
2017-10-14T01:10:29.562Z,11.20
2017-10-14T01:12:59.360Z,11.10
2017-10-14T01:15:29.353Z,11.10
2017-10-14T01:17:59.214Z,11.10
2017-10-14T01:20:29.945Z,11.00
2017-10-14T01:22:59.695Z,11.10
2017-10-14T01:25:29.908Z,11.20
2017-10-14T01:28:00.219Z,11.10
2017-10-14T01:30:30.241Z,11.00
2017-10-14T01:33:00.314Z,11.00
2017-10-14T01:35:30.190Z,11.10
2017-10-14T01:38:00.191Z,11.20
2017-10-14T01:40:32.223Z,11.30
2017-10-14T01:43:02.070Z,11.30
2017-10-14T01:45:32.220Z,11.20
2017-10-14T01:48:02.164Z,11.20
2017-10-14T01:50:32.199Z,11.20
2017-10-14T01:53:02.663Z,11.30
2017-10-14T01:55:32.639Z,11.30
2017-10-14T01:58:02.562Z,11.30
2017-10-14T02:00:33.916Z,11.30
2017-10-14T02:03:04.839Z,11.20
2017-10-14T02:05:34.741Z,11.20
2017-10-14T02:08:04.713Z,11.10
2017-10-14T02:13:16.746Z,11.20
2017-10-14T02:15:46.671Z,11.20
2017-10-14T02:18:27.410Z,11.20
2017-10-14T02:20:58.812Z,11.30
2017-10-14T02:23:29.686Z,11.20
2017-10-14T02:25:59.665Z,11.20
2017-10-14T02:28:30.017Z,11.20
2017-10-14T02:31:07.060Z,11.10
2017-10-14T02:33:36.903Z,11.10
2017-10-14T02:36:06.948Z,11.10
2017-10-14T02:38:37.003Z,11.20
2017-10-14T02:41:06.969Z,11.20
2017-10-14T02:43:38.064Z,11.20
2017-10-14T02:46:07.852Z,11.20
2017-10-14T02:48:37.723Z,11.20
2017-10-14T02:51:08.170Z,11.30
2017-10-14T02:53:38.019Z,11.30
2017-10-14T02:56:08.268Z,11.30
2017-10-14T02:58:38.563Z,11.30
2017-10-14T03:01:08.567Z,11.40
2017-10-14T03:03:38.497Z,11.20
2017-10-14T03:06:08.907Z,11.40
2017-10-14T03:08:45.446Z,11.30
2017-10-14T03:11:15.875Z,11.40
2017-10-14T03:13:46.270Z,11.40
2017-10-14T03:16:16.151Z,11.30
2017-10-14T03:18:47.500Z,11.20
2017-10-14T03:21:17.450Z,10.90
2017-10-14T03:23:53.578Z,10.80
2017-10-14T03:26:24.503Z,10.90
2017-10-14T03:28:54.544Z,10.90
2017-10-14T03:31:24.634Z,10.80
2017-10-14T03:33:56.276Z,10.90
2017-10-14T03:36:26.393Z,10.90
2017-10-14T03:38:56.261Z,11.00
2017-10-14T03:41:26.495Z,11.00
2017-10-14T03:44:07.060Z,10.80
2017-10-14T03:46:39.163Z,10.90
2017-10-14T03:49:09.915Z,10.80
2017-10-14T03:51:40.128Z,10.80
2017-10-14T03:54:10.324Z,10.90
2017-10-14T03:56:42.276Z,11.00
2017-10-14T03:59:17.814Z,11.00
2017-10-14T04:01:59.187Z,10.90
2017-10-14T04:04:31.506Z,11.10
2017-10-14T04:07:01.247Z,11.10
2017-10-14T04:09:31.281Z,11.10
2017-10-14T04:12:06.600Z,11.00
2017-10-14T04:14:37.483Z,10.90
2017-10-14T04:17:08.257Z,10.80
2017-10-14T04:19:39.778Z,10.80
2017-10-14T04:22:09.694Z,10.90
2017-10-14T04:24:39.675Z,10.90
2017-10-14T04:27:11.771Z,10.90
2017-10-14T04:29:43.751Z,10.80
2017-10-14T04:32:26.232Z,10.70
2017-10-14T04:35:00.395Z,10.70
2017-10-14T04:37:30.275Z,10.80
2017-10-14T04:40:01.458Z,10.80
2017-10-14T04:42:31.012Z,10.80
2017-10-14T04:45:00.613Z,10.70
2017-10-14T04:47:30.417Z,10.60
2017-10-14T04:50:00.466Z,10.50
2017-10-14T04:52:35.211Z,10.60
2017-10-14T04:55:05.835Z,10.50
2017-10-14T04:57:36.768Z,10.40
2017-10-14T05:00:07.003Z,10.40
2017-10-14T05:02:36.826Z,10.50
2017-10-14T05:05:06.894Z,10.50
2017-10-14T05:07:36.670Z,10.60
2017-10-14T05:10:07.384Z,10.60
2017-10-14T05:12:37.241Z,10.60
2017-10-14T05:15:07.353Z,10.60
2017-10-14T05:17:37.196Z,10.60
2017-10-14T05:20:08.048Z,10.70
2017-10-14T05:22:43.316Z,10.70
2017-10-14T05:25:15.219Z,10.70
2017-10-14T05:27:47.831Z,10.70
2017-10-14T05:30:18.672Z,10.70
2017-10-14T05:32:48.263Z,10.70
2017-10-14T05:35:18.510Z,10.70
2017-10-14T05:37:49.490Z,10.60
2017-10-14T05:40:19.300Z,10.60
2017-10-14T05:42:49.175Z,10.70
2017-10-14T05:45:19.924Z,10.80
2017-10-14T05:47:49.786Z,10.80
2017-10-14T05:50:21.750Z,10.80
2017-10-14T05:52:56.055Z,10.90
2017-10-14T05:55:25.917Z,10.90
2017-10-14T05:58:18.897Z,10.90
2017-10-14T06:00:51.359Z,10.90
2017-10-14T06:03:28.818Z,10.90
2017-10-14T06:05:59.699Z,11.00
2017-10-14T06:08:29.602Z,11.00
2017-10-14T06:11:01.402Z,11.00
2017-10-14T06:13:31.448Z,11.00
2017-10-14T06:16:06.745Z,11.10
2017-10-14T06:18:37.003Z,11.10
2017-10-14T06:21:08.251Z,11.10
2017-10-14T06:23:38.948Z,11.10
2017-10-14T06:26:08.819Z,11.00
2017-10-14T06:28:40.159Z,11.00
2017-10-14T06:31:24.155Z,11.10
2017-10-14T06:33:55.427Z,11.00
2017-10-14T06:36:27.238Z,11.20
2017-10-14T06:38:57.152Z,11.90
2017-10-14T06:41:28.294Z,13.30
2017-10-14T06:43:58.352Z,14.80
2017-10-14T06:46:28.107Z,16.30
2017-10-14T06:48:58.408Z,18.30
2017-10-14T06:51:28.271Z,18.30
2017-10-14T06:53:58.190Z,18.20
2017-10-14T06:56:28.014Z,17.60
2017-10-14T06:58:57.634Z,17.00
2017-10-14T07:01:27.993Z,17.40
2017-10-14T07:03:58.692Z,17.20
2017-10-14T07:06:28.683Z,16.50
2017-10-14T07:08:58.613Z,16.00
2017-10-14T07:11:28.187Z,16.00
2017-10-14T07:13:58.057Z,16.30
2017-10-14T07:16:28.352Z,16.80
2017-10-14T07:18:58.835Z,17.40
2017-10-14T07:21:30.321Z,18.50
2017-10-14T07:24:08.376Z,18.50
2017-10-14T07:26:38.705Z,19.20
2017-10-14T07:29:09.103Z,19.70
2017-10-14T07:31:39.348Z,19.60
2017-10-14T07:34:11.038Z,19.60
2017-10-14T07:36:42.862Z,19.20
2017-10-14T07:39:12.637Z,18.80
2017-10-14T07:41:42.707Z,18.60
2017-10-14T07:44:13.920Z,18.00
2017-10-14T07:46:45.980Z,17.00
2017-10-14T07:49:16.383Z,15.00
2017-10-14T07:51:45.957Z,15.00
2017-10-14T07:54:16.649Z,14.20
2017-10-14T07:56:48.468Z,14.20
2017-10-14T07:59:18.434Z,14.00
2017-10-14T08:01:48.887Z,14.00
2017-10-14T08:04:30.941Z,13.90
2017-10-14T08:07:06.527Z,13.80
2017-10-14T08:09:36.553Z,13.80
2017-10-14T08:12:07.628Z,13.90
2017-10-14T08:14:37.459Z,13.80
2017-10-14T08:17:07.572Z,13.90
2017-10-14T08:19:37.476Z,13.90
2017-10-14T08:22:07.815Z,14.00
2017-10-14T08:24:37.459Z,14.00
2017-10-14T08:27:08.267Z,14.50
2017-10-14T08:29:39.411Z,14.50
2017-10-14T08:32:10.159Z,14.90
2017-10-14T08:34:41.964Z,16.70
2017-10-14T08:37:13.107Z,17.80
2017-10-14T08:39:42.720Z,17.80
2017-10-14T08:42:13.598Z,19.00
2017-10-14T08:44:44.784Z,19.00
2017-10-14T09:30:57.156Z,19.30
2017-10-14T09:33:27.427Z,21.50
2017-10-14T09:35:59.005Z,22.10
2017-10-14T09:38:28.783Z,22.30
2017-10-14T09:40:59.107Z,22.20
2017-10-14T09:43:32.671Z,23.00
2017-10-14T09:46:02.635Z,22.90
2017-10-14T09:48:46.333Z,22.90
2017-10-14T09:51:17.312Z,22.10
2017-10-14T09:53:50.035Z,22.00
2017-10-14T09:56:39.162Z,21.80
2017-10-14T09:59:10.939Z,21.50
2017-10-14T10:01:46.208Z,21.50
2017-10-14T10:04:16.242Z,21.70
2017-10-14T10:06:45.916Z,21.80
2017-10-14T10:09:15.482Z,21.60
2017-10-14T10:11:46.614Z,21.50
2017-10-14T10:14:17.399Z,22.20
2017-10-14T10:16:54.999Z,22.20
2017-10-14T10:19:31.011Z,22.30
2017-10-14T10:22:00.964Z,22.30
2017-10-14T10:24:30.803Z,22.60
2017-10-14T10:27:23.927Z,22.80
2017-10-14T10:30:07.797Z,23.10
2017-10-14T10:35:44.970Z,23.90
2017-10-14T10:38:24.706Z,22.40
2017-10-14T10:40:55.126Z,22.30
2017-10-14T10:43:29.710Z,23.20
2017-10-14T10:45:59.986Z,23.20
2017-10-14T10:48:36.386Z,22.80
2017-10-14T10:51:06.272Z,22.40
2017-10-14T10:53:36.610Z,21.20
2017-10-14T10:56:06.335Z,21.00
2017-10-14T10:58:36.426Z,21.90
2017-10-14T11:01:06.757Z,22.80
2017-10-14T11:03:37.496Z,23.50
2017-10-14T11:06:07.489Z,23.70
2017-10-14T11:08:38.063Z,22.80
2017-10-14T11:11:11.803Z,21.50
2017-10-14T11:13:41.779Z,21.50
2017-10-14T11:16:14.284Z,21.40
2017-10-14T11:18:44.334Z,20.80
2017-10-14T11:21:16.741Z,21.20
2017-10-14T11:23:51.521Z,21.00
2017-10-14T11:26:22.975Z,21.00
2017-10-14T11:28:52.958Z,21.90
2017-10-14T11:34:25.018Z,21.90
2017-10-14T11:36:59.990Z,22.00
2017-10-14T11:39:34.367Z,21.90
2017-10-14T11:42:04.811Z,22.30
2017-10-14T11:44:34.917Z,22.30
2017-10-14T11:47:05.848Z,22.40
2017-10-14T11:49:51.836Z,22.40
2017-10-14T11:52:23.781Z,22.90
2017-10-14T11:57:55.519Z,23.70
2017-10-14T12:00:25.666Z,23.70
2017-10-14T12:02:56.265Z,23.80
2017-10-14T12:05:32.938Z,24.10
2017-10-14T12:08:04.915Z,24.20
2017-10-14T12:10:35.185Z,24.20
2017-10-14T12:13:05.147Z,24.60
2017-10-14T12:15:36.334Z,24.50
2017-10-14T12:21:17.472Z,24.70
2017-10-14T12:23:47.563Z,24.70
2017-10-14T12:26:18.140Z,24.20
2017-10-14T12:28:50.619Z,23.90
2017-10-14T12:31:21.748Z,23.10
2017-10-14T12:33:59.290Z,23.80
2017-10-14T12:36:37.240Z,23.50
2017-10-14T12:42:07.364Z,22.90
2017-10-14T12:44:43.019Z,23.60
2017-10-14T12:47:13.695Z,23.50
2017-10-14T12:49:45.029Z,23.70
2017-10-14T12:52:16.172Z,23.70
2017-10-14T12:54:46.207Z,24.60
2017-10-14T12:57:18.992Z,24.20
2017-10-14T12:59:50.946Z,24.80
2017-10-14T13:02:35.733Z,25.70
2017-10-14T13:05:15.724Z,25.90
2017-10-14T13:13:49.384Z,23.40
2017-10-14T13:16:19.850Z,23.10
2017-10-14T13:19:04.260Z,22.80
2017-10-14T13:21:34.752Z,22.70
2017-10-14T13:24:06.676Z,22.60
2017-10-14T13:26:38.681Z,22.50
2017-10-14T13:29:43.397Z,22.40
2017-10-14T13:32:14.875Z,22.20
2017-10-14T13:34:47.135Z,21.70
2017-10-14T13:37:16.877Z,21.70
2017-10-14T13:39:49.004Z,21.50
2017-10-14T13:42:42.628Z,21.10
2017-10-14T13:45:24.998Z,21.10
2017-10-14T13:48:08.550Z,21.00
2017-10-14T13:50:40.334Z,21.00
2017-10-14T13:53:10.312Z,21.00
2017-10-14T13:55:45.062Z,20.80
2017-10-14T13:58:15.401Z,20.80
2017-10-14T14:00:49.583Z,20.60
2017-10-14T14:03:19.579Z,20.60
2017-10-14T14:05:52.375Z,20.30
2017-10-14T14:08:25.591Z,20.40
2017-10-14T14:10:55.447Z,20.70
2017-10-14T14:13:25.111Z,20.70
2017-10-14T14:15:56.342Z,20.50
2017-10-14T14:18:27.983Z,20.50
2017-10-14T14:21:00.000Z,20.50
2017-10-14T14:23:34.644Z,20.60
2017-10-14T14:26:11.810Z,20.40
2017-10-14T14:28:46.174Z,20.50
2017-10-14T14:31:16.143Z,20.40
2017-10-14T14:36:45.287Z,20.30
2017-10-14T14:39:44.616Z,20.00
2017-10-14T14:42:14.807Z,20.00
2017-10-14T14:44:50.743Z,20.10
2017-10-14T14:47:21.528Z,20.20
2017-10-14T14:50:01.625Z,20.50
2017-10-14T14:52:32.514Z,20.50
2017-10-14T14:55:04.967Z,20.70
2017-10-14T14:57:35.337Z,20.70
2017-10-14T15:00:11.256Z,20.70
2017-10-14T15:02:58.879Z,20.70
2017-10-14T15:08:32.711Z,20.70
2017-10-14T15:11:02.951Z,20.80
2017-10-14T15:13:36.098Z,20.50
2017-10-14T15:19:12.269Z,20.50
2017-10-14T15:24:43.192Z,20.30
2017-10-14T15:27:20.288Z,20.30
2017-10-14T15:29:50.927Z,20.10
2017-10-14T15:32:29.405Z,19.90
2017-10-14T15:35:10.494Z,19.80
2017-10-14T15:37:41.985Z,19.70
2017-10-14T15:40:13.876Z,19.70
2017-10-14T15:42:43.757Z,19.70
2017-10-14T15:45:14.477Z,19.50
2017-10-14T15:47:45.512Z,19.10
2017-10-14T15:50:19.106Z,19.10
2017-10-14T15:52:50.871Z,18.80
2017-10-14T15:55:25.347Z,18.70
2017-10-14T15:57:54.982Z,18.60
2017-10-14T16:00:25.244Z,18.40
2017-10-14T16:02:56.644Z,18.20
2017-10-14T16:08:44.530Z,17.80
2017-10-14T16:11:15.729Z,17.80
2017-10-14T16:14:24.238Z,17.60
2017-10-14T16:16:54.279Z,17.50
2017-10-14T16:19:23.849Z,17.40
2017-10-14T16:21:53.774Z,17.30
2017-10-14T16:24:23.612Z,17.20
2017-10-14T16:26:56.519Z,17.10
2017-10-14T16:29:26.279Z,17.00
2017-10-14T16:31:57.799Z,16.70
2017-10-14T16:34:30.997Z,16.60
2017-10-14T16:37:01.118Z,16.60
2017-10-14T16:39:31.947Z,16.60
2017-10-14T16:42:02.768Z,16.50
2017-10-14T16:44:33.202Z,16.40
2017-10-14T16:47:06.178Z,16.30
2017-10-14T16:49:36.087Z,16.30
2017-10-14T16:52:07.490Z,15.80
2017-10-14T16:54:37.144Z,15.90
2017-10-14T16:57:09.398Z,15.80
2017-10-14T16:59:41.335Z,15.60
2017-10-14T17:02:11.986Z,15.60
2017-10-14T17:04:41.626Z,15.60
2017-10-14T17:07:11.964Z,15.60
2017-10-14T17:09:45.288Z,15.50
2017-10-14T17:12:16.477Z,15.50
2017-10-14T17:14:47.855Z,15.40
2017-10-14T17:17:18.640Z,15.40
2017-10-14T17:19:48.894Z,15.40
2017-10-14T17:22:23.586Z,15.30
2017-10-14T17:25:01.084Z,15.30
2017-10-14T17:27:33.902Z,15.20
2017-10-14T17:30:07.270Z,15.20
2017-10-14T17:32:38.001Z,15.10
2017-10-14T17:35:08.851Z,15.00
2017-10-14T17:37:39.097Z,14.80
2017-10-14T17:40:21.142Z,14.80
2017-10-14T17:45:29.881Z,14.80
2017-10-14T17:48:01.224Z,14.80
2017-10-14T17:50:31.423Z,14.80
2017-10-14T17:53:12.246Z,14.70
2017-10-14T17:55:47.132Z,14.50
2017-10-14T17:58:17.386Z,14.10
2017-10-14T18:01:05.409Z,14.00
2017-10-14T18:03:35.815Z,14.10
2017-10-14T18:06:14.416Z,14.20
2017-10-14T18:08:46.136Z,14.10
2017-10-14T18:11:16.150Z,14.10
2017-10-14T18:13:46.222Z,14.20
2017-10-14T18:16:17.306Z,14.10
2017-10-14T18:18:47.016Z,14.10
2017-10-14T18:21:18.604Z,13.70
2017-10-14T18:23:48.255Z,13.60
2017-10-14T18:26:18.833Z,13.70
2017-10-14T18:28:48.666Z,13.80
2017-10-14T18:31:18.387Z,13.80
2017-10-14T18:33:48.879Z,13.90
2017-10-14T18:36:18.984Z,13.90
2017-10-14T18:38:49.337Z,13.80
2017-10-14T18:41:20.765Z,13.70
2017-10-14T18:43:51.391Z,13.50
2017-10-14T18:46:21.589Z,13.40
2017-10-14T18:48:58.812Z,13.30
2017-10-14T18:51:29.819Z,13.30
2017-10-14T18:54:00.183Z,13.30
2017-10-14T18:56:30.660Z,13.50
2017-10-14T18:59:00.254Z,13.40
2017-10-14T19:01:36.064Z,13.50
2017-10-14T19:04:05.763Z,13.50
2017-10-14T19:06:35.998Z,13.40
2017-10-14T19:09:06.471Z,13.30
2017-10-14T19:12:55.932Z,13.20
2017-10-14T19:15:26.598Z,12.90
2017-10-14T19:17:57.945Z,12.80
2017-10-14T19:20:28.067Z,12.50
2017-10-14T19:22:57.998Z,12.60
2017-10-14T19:25:27.856Z,12.60
2017-10-14T19:27:57.999Z,12.80
2017-10-14T19:30:27.758Z,12.70
2017-10-14T19:32:57.838Z,12.20
2017-10-14T19:35:28.710Z,12.20
2017-10-14T19:37:58.429Z,12.20
2017-10-14T19:40:28.954Z,12.50
2017-10-14T19:42:59.026Z,12.50
2017-10-14T19:45:29.358Z,12.50
2017-10-14T19:48:02.448Z,12.50
2017-10-14T19:50:33.373Z,12.60
2017-10-14T19:53:04.195Z,12.60
2017-10-14T19:55:34.602Z,12.70
2017-10-14T19:58:04.131Z,12.60
2017-10-14T20:00:50.069Z,12.70
2017-10-14T20:03:20.068Z,12.80
2017-10-14T20:05:49.650Z,12.90
2017-10-14T20:08:20.096Z,12.70
2017-10-14T20:10:50.102Z,12.70
2017-10-14T20:13:20.440Z,12.60
2017-10-14T20:15:50.133Z,12.60
2017-10-14T20:18:20.573Z,12.60
2017-10-14T20:20:50.631Z,12.50
2017-10-14T20:23:20.251Z,12.30
2017-10-14T20:25:50.180Z,12.30
2017-10-14T20:28:19.792Z,12.30
2017-10-14T20:30:50.456Z,12.40
2017-10-14T20:33:23.139Z,12.40
2017-10-14T20:35:54.948Z,12.40
2017-10-14T20:38:24.638Z,12.20
2017-10-14T20:40:54.314Z,12.50
2017-10-14T20:43:24.276Z,12.50
2017-10-14T20:45:55.299Z,12.40
2017-10-14T20:48:26.152Z,12.30
2017-10-14T20:50:56.702Z,12.30
2017-10-14T20:53:26.774Z,12.20
2017-10-14T20:55:56.783Z,12.40
2017-10-14T20:58:27.071Z,12.30
2017-10-14T21:00:57.016Z,12.40
2017-10-14T21:03:27.039Z,12.40
2017-10-14T21:05:56.849Z,12.40
2017-10-14T21:08:27.338Z,12.50
2017-10-14T21:10:57.765Z,12.60
2017-10-14T21:13:27.384Z,12.60
2017-10-14T21:15:57.253Z,12.60
2017-10-14T21:18:26.797Z,12.50
2017-10-14T21:20:56.368Z,12.50
2017-10-14T21:23:26.760Z,12.50
2017-10-14T21:25:56.886Z,12.60
2017-10-14T21:28:26.467Z,12.60
2017-10-14T21:30:57.176Z,12.60
2017-10-14T21:33:26.827Z,12.60
2017-10-14T21:35:56.457Z,12.50
2017-10-14T21:38:27.723Z,12.40
2017-10-14T21:40:57.545Z,12.40
2017-10-14T21:43:27.204Z,12.20
2017-10-14T21:45:58.175Z,12.10
2017-10-14T21:48:28.149Z,12.00
2017-10-14T21:50:58.795Z,12.00
2017-10-14T21:53:29.062Z,12.30
2017-10-14T21:55:59.481Z,12.50
2017-10-14T21:58:29.035Z,12.70
2017-10-14T22:00:59.052Z,12.60
2017-10-14T22:03:29.365Z,12.70
2017-10-14T22:05:58.932Z,12.60
2017-10-14T22:08:28.962Z,12.70
2017-10-14T22:10:58.532Z,12.60
2017-10-14T22:13:34.174Z,12.70
2017-10-14T22:16:04.045Z,12.70
2017-10-14T22:18:34.387Z,12.80
2017-10-14T22:21:04.747Z,12.90
2017-10-14T22:23:34.735Z,12.90
2017-10-14T22:26:05.117Z,12.70
2017-10-14T22:28:34.678Z,12.60
2017-10-14T22:31:05.407Z,12.80
2017-10-14T22:33:35.517Z,12.80
2017-10-14T22:36:06.222Z,12.80
2017-10-14T22:38:36.315Z,12.80
2017-10-14T22:41:05.987Z,12.80
2017-10-14T22:43:35.932Z,12.80
2017-10-14T22:46:05.498Z,12.90
2017-10-14T22:48:35.055Z,12.80
2017-10-14T22:51:05.047Z,12.70
2017-10-14T22:53:34.635Z,12.70
2017-10-14T22:56:04.980Z,12.80
2017-10-14T22:58:34.927Z,12.80
2017-10-14T23:01:05.732Z,12.90
2017-10-14T23:03:35.879Z,12.80
2017-10-14T23:06:06.398Z,12.80
2017-10-14T23:08:36.458Z,12.90
2017-10-14T23:11:06.357Z,12.90
2017-10-14T23:13:36.371Z,12.90
2017-10-14T23:16:08.767Z,13.00
2017-10-14T23:18:38.807Z,12.90
2017-10-14T23:21:08.416Z,13.00
2017-10-14T23:23:38.728Z,13.10
2017-10-14T23:26:08.720Z,13.10
2017-10-14T23:28:38.663Z,13.20
2017-10-14T23:31:09.825Z,13.10
2017-10-14T23:33:39.568Z,13.10
2017-10-14T23:36:09.379Z,13.10
2017-10-14T23:38:39.369Z,12.90
2017-10-14T23:41:08.977Z,13.00
2017-10-14T23:43:38.594Z,13.00
2017-10-14T23:46:08.734Z,12.90
2017-10-14T23:48:38.282Z,12.70
2017-10-14T23:51:08.610Z,12.40
2017-10-14T23:53:38.945Z,12.00
2017-10-14T23:56:08.755Z,12.00
2017-10-14T23:58:39.186Z,12.00
